createdAt,value
2023-04-11T00:01:07.317Z,10.20
2023-04-11T00:03:38.772Z,10.20
2023-04-11T00:06:07.841Z,10.20
2023-04-11T00:08:38.110Z,10.20
2023-04-11T00:11:08.930Z,10.20
2023-04-11T00:13:37.676Z,10.20
2023-04-11T00:16:09.957Z,10.20
2023-04-11T00:18:45.016Z,10.20
2023-04-11T00:21:13.258Z,10.20
2023-04-11T00:23:41.412Z,10.20
2023-04-11T00:26:09.819Z,10.20
2023-04-11T00:28:41.478Z,10.30
2023-04-11T00:31:09.631Z,10.30
2023-04-11T00:33:41.218Z,10.30
2023-04-11T00:36:12.693Z,10.30
2023-04-11T00:38:44.646Z,10.30
2023-04-11T00:41:15.423Z,10.30
2023-04-11T00:43:43.829Z,10.30
2023-04-11T00:46:12.010Z,10.30
2023-04-11T00:48:44.107Z,10.30
2023-04-11T00:51:12.280Z,10.30
2023-04-11T00:53:40.930Z,10.30
2023-04-11T00:56:12.271Z,10.30
2023-04-11T00:58:41.010Z,10.30
2023-04-11T01:01:10.073Z,10.30
2023-04-11T01:03:39.690Z,10.30
2023-04-11T01:06:11.268Z,10.30
2023-04-11T01:08:40.512Z,10.30
2023-04-11T01:11:10.626Z,10.30
2023-04-11T01:13:43.698Z,10.20
2023-04-11T01:16:12.304Z,10.00
2023-04-11T01:18:43.518Z,9.80
2023-04-11T01:21:13.018Z,9.70
2023-04-11T01:23:42.487Z,9.50
2023-04-11T01:26:10.738Z,9.40
2023-04-11T01:28:38.888Z,9.40
2023-04-11T01:31:08.327Z,9.30
2023-04-11T01:33:38.928Z,9.20
2023-04-11T01:36:08.620Z,9.20
2023-04-11T01:38:36.892Z,9.10
2023-04-11T01:41:07.891Z,9.10
2023-04-11T01:43:36.142Z,9.10
2023-04-11T01:46:04.636Z,9.10
2023-04-11T01:48:35.196Z,9.10
2023-04-11T01:51:03.421Z,9.10
2023-04-11T01:53:31.646Z,9.10
2023-04-11T01:55:59.808Z,9.10
2023-04-11T01:58:29.297Z,9.10
2023-04-11T02:00:59.756Z,9.10
2023-04-11T02:03:28.050Z,9.10
2023-04-11T02:05:56.872Z,9.10
2023-04-11T02:08:27.557Z,9.10
2023-04-11T02:10:56.884Z,9.20
2023-04-11T02:13:25.083Z,9.10
2023-04-11T02:15:54.662Z,9.10
2023-04-11T02:18:24.983Z,9.10
2023-04-11T02:20:53.066Z,9.20
2023-04-11T02:23:24.237Z,9.20
2023-04-11T02:25:52.501Z,9.10
2023-04-11T02:28:21.107Z,9.10
2023-04-11T02:30:49.403Z,9.10
2023-04-11T02:33:21.349Z,9.10
2023-04-11T02:35:56.632Z,9.10
2023-04-11T02:38:24.776Z,9.10
2023-04-11T02:40:52.913Z,9.10
2023-04-11T02:43:21.022Z,9.10
2023-04-11T02:45:49.838Z,9.10
2023-04-11T02:48:20.575Z,9.10
2023-04-11T02:50:51.808Z,9.10
2023-04-11T02:53:19.934Z,9.00
2023-04-11T02:55:50.586Z,9.00
2023-04-11T02:58:21.194Z,9.10
2023-04-11T03:00:51.381Z,9.10
2023-04-11T03:03:21.023Z,9.10
2023-04-11T03:05:50.062Z,9.10
2023-04-11T03:08:23.073Z,9.10
2023-04-11T03:10:54.351Z,9.10
2023-04-11T03:13:26.560Z,9.10
2023-04-11T03:15:55.097Z,9.10
2023-04-11T03:18:28.327Z,9.10
2023-04-11T03:20:57.350Z,9.00
2023-04-11T03:23:25.504Z,9.00
2023-04-11T03:25:54.043Z,9.00
2023-04-11T03:28:23.309Z,9.00
2023-04-11T03:30:51.969Z,8.90
2023-04-11T03:33:23.609Z,8.90
2023-04-11T03:35:53.133Z,8.90
2023-04-11T03:38:21.923Z,8.90
2023-04-11T03:40:50.284Z,8.90
2023-04-11T03:43:22.485Z,8.90
2023-04-11T03:45:53.427Z,8.80
2023-04-11T03:48:37.476Z,8.80
2023-04-11T03:51:10.883Z,8.80
2023-04-11T03:53:45.898Z,8.80
2023-04-11T03:56:40.780Z,8.80
2023-04-11T03:59:14.742Z,8.80
2023-04-11T04:01:54.652Z,8.80
2023-04-11T04:04:25.737Z,8.80
2023-04-11T04:07:06.810Z,8.80
2023-04-11T04:09:39.304Z,8.80
2023-04-11T04:12:07.988Z,8.80
2023-04-11T04:14:55.110Z,8.80
2023-04-11T04:17:23.390Z,8.80
2023-04-11T04:19:51.799Z,8.80
2023-04-11T04:22:22.361Z,8.70
2023-04-11T04:24:58.246Z,8.50
2023-04-11T04:27:32.547Z,8.40
2023-04-11T04:30:04.217Z,8.20
2023-04-11T04:32:54.871Z,8.00
2023-04-11T04:35:24.605Z,7.90
2023-04-11T04:37:54.343Z,7.80
2023-04-11T04:40:40.197Z,7.80
2023-04-11T04:43:18.465Z,7.70
2023-04-11T04:45:58.317Z,7.70
2023-04-11T04:48:33.704Z,7.70
2023-04-11T04:51:01.893Z,7.70
2023-04-11T04:53:34.960Z,7.70
2023-04-11T04:56:03.344Z,7.70
2023-04-11T04:58:34.260Z,7.70
2023-04-11T05:01:05.291Z,7.80
2023-04-11T05:03:38.830Z,7.70
2023-04-11T05:06:12.322Z,7.80
2023-04-11T05:08:42.797Z,7.70
2023-04-11T05:11:12.686Z,7.70
2023-04-11T05:13:40.951Z,7.60
2023-04-11T05:16:14.652Z,7.70
2023-04-11T05:18:42.976Z,7.60
2023-04-11T05:21:14.197Z,7.60
2023-04-11T05:23:47.480Z,7.60
2023-04-11T05:26:15.913Z,7.60
2023-04-11T05:28:44.207Z,7.60
2023-04-11T05:31:17.143Z,7.60
2023-04-11T05:33:46.438Z,7.60
2023-04-11T05:36:14.755Z,7.60
2023-04-11T05:38:43.506Z,7.60
2023-04-11T05:41:13.998Z,7.60
2023-04-11T05:43:42.212Z,7.60
2023-04-11T05:46:11.004Z,7.60
2023-04-11T05:48:39.254Z,7.60
2023-04-11T05:51:08.403Z,7.60
2023-04-11T05:53:36.596Z,7.70
2023-04-11T05:56:04.857Z,7.70
2023-04-11T05:58:36.372Z,7.70
2023-04-11T06:01:05.203Z,7.70
2023-04-11T06:03:33.544Z,7.70
2023-04-11T06:06:01.907Z,7.70
2023-04-11T06:08:30.142Z,7.70
2023-04-11T06:10:58.268Z,7.70
2023-04-11T06:13:26.506Z,7.70
2023-04-11T06:15:56.219Z,7.80
2023-04-11T06:18:26.636Z,7.80
2023-04-11T06:20:55.963Z,7.80
2023-04-11T06:23:24.051Z,7.80
2023-04-11T06:25:54.804Z,7.90
2023-04-11T06:28:26.284Z,7.90
2023-04-11T06:30:55.940Z,7.80
2023-04-11T06:33:24.248Z,7.80
2023-04-11T06:35:52.450Z,7.80
2023-04-11T06:38:20.898Z,7.80
2023-04-11T06:40:51.543Z,7.80
2023-04-11T06:43:22.242Z,7.90
2023-04-11T06:45:51.506Z,7.90
2023-04-11T06:48:21.297Z,8.00
2023-04-11T06:50:49.846Z,8.00
2023-04-11T06:53:18.030Z,8.00
2023-04-11T06:55:49.590Z,8.10
2023-04-11T06:58:17.860Z,8.10
2023-04-11T07:00:46.114Z,8.20
2023-04-11T07:03:16.733Z,8.20
2023-04-11T07:05:46.731Z,8.30
2023-04-11T07:08:14.964Z,8.30
2023-04-11T07:10:43.112Z,8.40
2023-04-11T07:13:11.300Z,8.40
2023-04-11T07:15:39.432Z,8.40
2023-04-11T07:18:07.765Z,8.50
2023-04-11T07:20:36.215Z,8.50
2023-04-11T07:23:05.844Z,8.50
2023-04-11T07:25:34.372Z,8.50
2023-04-11T07:28:08.378Z,8.50
2023-04-11T07:30:39.069Z,8.60
2023-04-11T07:33:07.244Z,8.70
2023-04-11T07:35:36.201Z,8.80
2023-04-11T07:38:06.320Z,8.90
2023-04-11T07:40:34.513Z,9.00
2023-04-11T07:43:05.233Z,9.10
2023-04-11T07:45:34.202Z,9.20
2023-04-11T07:48:02.484Z,9.20
2023-04-11T07:50:30.800Z,9.20
2023-04-11T07:52:59.097Z,9.20
2023-04-11T07:55:28.563Z,9.10
2023-04-11T07:57:58.758Z,9.10
2023-04-11T08:00:28.772Z,9.10
2023-04-11T08:02:59.526Z,9.10
2023-04-11T08:05:28.060Z,9.10
2023-04-11T08:07:56.478Z,9.10
2023-04-11T08:10:29.269Z,9.10
2023-04-11T08:13:00.196Z,9.10
2023-04-11T08:15:30.375Z,9.10
2023-04-11T08:17:59.767Z,9.20
2023-04-11T08:20:30.634Z,9.20
2023-04-11T08:22:59.447Z,9.30
2023-04-11T08:25:28.990Z,9.40
2023-04-11T08:27:57.320Z,9.50
2023-04-11T08:30:26.388Z,9.60
2023-04-11T08:32:56.797Z,9.70
2023-04-11T08:35:25.379Z,9.80
2023-04-11T08:37:53.515Z,9.80
2023-04-11T08:40:21.937Z,9.80
2023-04-11T08:42:51.670Z,9.80
2023-04-11T08:45:22.080Z,9.90
2023-04-11T08:47:50.281Z,9.80
2023-04-11T08:50:21.071Z,9.90
2023-04-11T08:52:51.940Z,10.00
2023-04-11T08:55:20.356Z,9.90
2023-04-11T08:57:48.616Z,9.90
2023-04-11T09:00:24.927Z,9.90
2023-04-11T09:03:00.747Z,10.00
2023-04-11T09:05:30.558Z,10.20
2023-04-11T09:07:59.289Z,10.30
2023-04-11T09:10:28.352Z,10.40
2023-04-11T09:12:57.223Z,10.40
2023-04-11T09:15:30.763Z,10.50
2023-04-11T09:18:01.123Z,10.60
2023-04-11T09:20:31.171Z,10.60
2023-04-11T09:22:59.955Z,10.60
2023-04-11T09:25:28.566Z,10.80
2023-04-11T09:28:09.809Z,10.90
2023-04-11T09:30:39.320Z,11.20
2023-04-11T09:33:22.441Z,11.30
2023-04-11T09:35:52.314Z,11.50
2023-04-11T09:38:30.242Z,11.50
2023-04-11T09:40:58.932Z,11.60
2023-04-11T09:43:27.268Z,11.70
2023-04-11T09:46:21.235Z,11.80
2023-04-11T09:48:50.415Z,11.80
2023-04-11T09:51:34.959Z,11.90
2023-04-11T09:54:04.669Z,12.00
2023-04-11T09:56:35.236Z,12.20
2023-04-11T09:59:05.208Z,12.20
2023-04-11T10:01:34.914Z,12.10
2023-04-11T10:04:04.537Z,12.10
2023-04-11T10:06:39.234Z,12.20
2023-04-11T10:09:09.433Z,12.20
2023-04-11T10:11:42.544Z,12.10
2023-04-11T10:14:11.132Z,12.10
2023-04-11T10:17:14.833Z,12.20
2023-04-11T10:19:47.294Z,12.30
2023-04-11T10:22:59.261Z,12.30
2023-04-11T10:25:27.722Z,12.40
2023-04-11T10:28:00.834Z,12.40
2023-04-11T10:31:01.693Z,12.30
2023-04-11T10:33:32.104Z,12.30
2023-04-11T10:36:03.357Z,12.10
2023-04-11T10:38:48.479Z,12.00
2023-04-11T10:41:34.611Z,12.00
2023-04-11T10:44:18.527Z,12.10
2023-04-11T10:46:48.932Z,12.10
2023-04-11T10:49:35.533Z,12.00
2023-04-11T10:52:18.694Z,11.90
2023-04-11T10:54:50.090Z,11.90
2023-04-11T10:57:18.625Z,11.90
2023-04-11T11:00:00.484Z,12.00
2023-04-11T11:02:41.710Z,12.10
2023-04-11T11:05:25.507Z,12.20
2023-04-11T11:07:56.301Z,12.30
2023-04-11T11:10:38.349Z,12.30
2023-04-11T11:13:06.632Z,12.30
2023-04-11T11:15:37.696Z,12.30
2023-04-11T11:18:10.614Z,12.30
2023-04-11T11:20:41.014Z,12.40
2023-04-11T11:23:10.319Z,12.40
2023-04-11T11:25:38.756Z,12.50
2023-04-11T11:28:08.396Z,12.40
2023-04-11T11:30:39.863Z,12.50
2023-04-11T11:33:27.038Z,12.50
2023-04-11T11:35:58.331Z,12.50
2023-04-11T11:38:28.492Z,12.70
2023-04-11T11:41:00.047Z,12.80
2023-04-11T11:43:28.907Z,12.80
2023-04-11T11:46:14.428Z,12.90
2023-04-11T11:48:44.181Z,13.00
2023-04-11T11:51:14.167Z,13.00
2023-04-11T11:53:42.684Z,13.10
2023-04-11T11:56:14.937Z,13.20
2023-04-11T11:58:46.398Z,13.20
2023-04-11T12:01:17.526Z,13.20
2023-04-11T12:03:48.024Z,13.20
2023-04-11T12:06:17.937Z,13.10
2023-04-11T12:08:50.304Z,13.10
2023-04-11T12:11:19.474Z,13.10
2023-04-11T12:13:53.415Z,13.10
2023-04-11T12:16:23.550Z,13.20
2023-04-11T12:18:51.847Z,13.20
2023-04-11T12:21:21.369Z,13.10
2023-04-11T12:23:49.657Z,12.90
2023-04-11T12:26:20.112Z,12.90
2023-04-11T12:28:48.366Z,12.80
2023-04-11T12:31:20.073Z,12.80
2023-04-11T12:33:48.391Z,12.90
2023-04-11T12:36:16.709Z,13.00
2023-04-11T12:38:48.824Z,13.10
2023-04-11T12:43:50.675Z,13.30
2023-04-11T12:46:19.386Z,13.40
2023-04-11T12:48:50.443Z,13.50
2023-04-11T12:51:18.562Z,13.50
2023-04-11T12:53:48.074Z,13.70
2023-04-11T12:56:16.264Z,13.70
2023-04-11T12:58:44.911Z,13.80
2023-04-11T13:01:13.034Z,13.80
2023-04-11T13:03:43.887Z,13.70
2023-04-11T13:06:12.198Z,13.60
2023-04-11T13:08:40.462Z,13.60
2023-04-11T13:11:10.073Z,13.50
2023-04-11T13:13:38.277Z,13.50
2023-04-11T13:16:07.197Z,13.50
2023-04-11T13:18:35.450Z,13.50
2023-04-11T13:21:06.344Z,13.60
2023-04-11T13:23:37.446Z,13.70
2023-04-11T13:26:06.984Z,13.80
2023-04-11T13:28:39.401Z,13.90
2023-04-11T13:31:11.072Z,13.80
2023-04-11T13:33:40.617Z,13.80
2023-04-11T13:36:10.139Z,13.90
2023-04-11T13:38:38.668Z,13.90
2023-04-11T13:41:07.253Z,14.00
2023-04-11T13:43:35.513Z,14.10
2023-04-11T13:46:08.300Z,14.10
2023-04-11T13:48:36.573Z,14.00
2023-04-11T13:51:04.851Z,13.80
2023-04-11T13:53:35.588Z,13.70
2023-04-11T13:56:04.152Z,13.70
2023-04-11T13:58:35.527Z,13.70
2023-04-11T14:01:04.178Z,13.60
2023-04-11T14:03:34.194Z,13.50
2023-04-11T14:06:03.515Z,13.40
2023-04-11T14:08:33.821Z,13.60
2023-04-11T14:11:01.958Z,13.70
2023-04-11T14:13:30.214Z,13.90
2023-04-11T14:16:08.727Z,14.00
2023-04-11T14:18:38.980Z,14.00
2023-04-11T14:21:08.162Z,13.90
2023-04-11T14:23:38.759Z,13.80
2023-04-11T14:26:07.470Z,13.80
2023-04-11T14:28:36.036Z,13.70
2023-04-11T14:31:04.308Z,13.80
2023-04-11T14:33:32.525Z,13.90
2023-04-11T14:36:02.199Z,14.00
2023-04-11T14:38:30.734Z,13.90
2023-04-11T14:41:01.333Z,13.80
2023-04-11T14:43:29.582Z,13.70
2023-04-11T14:45:58.374Z,13.70
2023-04-11T14:48:27.384Z,13.70
2023-04-11T14:50:58.498Z,13.70
2023-04-11T14:53:28.052Z,13.80
2023-04-11T14:55:56.212Z,13.80
2023-04-11T14:58:24.429Z,13.80
2023-04-11T15:00:52.622Z,13.60
2023-04-11T15:03:20.867Z,13.60
2023-04-11T15:05:49.086Z,13.70
2023-04-11T15:08:19.830Z,13.90
2023-04-11T15:10:54.156Z,14.10
2023-04-11T15:13:23.348Z,14.30
2023-04-11T15:15:51.905Z,14.50
2023-04-11T15:18:24.538Z,14.50
2023-04-11T15:20:53.428Z,14.50
2023-04-11T15:23:22.405Z,14.40
2023-04-11T15:25:58.480Z,14.10
2023-04-11T15:28:27.949Z,14.10
2023-04-11T15:30:56.321Z,14.10
2023-04-11T15:33:24.606Z,14.10
2023-04-11T15:35:54.308Z,13.90
2023-04-11T15:38:22.896Z,13.80
2023-04-11T15:40:51.540Z,13.80
2023-04-11T15:43:21.583Z,14.00
2023-04-11T15:45:50.045Z,14.20
2023-04-11T15:48:20.669Z,14.40
2023-04-11T15:50:48.871Z,14.50
2023-04-11T15:53:19.520Z,14.50
2023-04-11T15:55:51.313Z,14.60
2023-04-11T15:58:20.972Z,14.70
2023-04-11T16:00:49.121Z,14.70
2023-04-11T16:03:20.028Z,14.80
2023-04-11T16:05:50.844Z,14.80
2023-04-11T16:08:18.978Z,14.80
2023-04-11T16:10:48.944Z,14.80
2023-04-11T16:13:21.832Z,14.80
2023-04-11T16:15:52.248Z,14.70
2023-04-11T16:18:20.582Z,14.60
2023-04-11T16:20:48.812Z,14.50
2023-04-11T16:23:17.023Z,14.40
2023-04-11T16:25:47.644Z,14.30
2023-04-11T16:28:15.978Z,14.20
2023-04-11T16:30:47.959Z,14.20
2023-04-11T16:33:16.080Z,14.20
2023-04-11T16:35:44.231Z,14.10
2023-04-11T16:38:12.413Z,14.00
2023-04-11T16:40:40.719Z,13.90
2023-04-11T16:43:08.878Z,13.90
2023-04-11T16:45:40.392Z,13.90
2023-04-11T16:48:10.428Z,13.90
2023-04-11T16:50:38.714Z,13.90
2023-04-11T16:53:06.949Z,13.90
2023-04-11T16:55:35.107Z,13.90
2023-04-11T16:58:03.687Z,13.90
2023-04-11T17:00:34.809Z,13.80
2023-04-11T17:03:05.745Z,13.60
2023-04-11T17:05:35.445Z,13.50
2023-04-11T17:08:03.706Z,13.40
2023-04-11T17:10:31.836Z,13.30
2023-04-11T17:13:00.109Z,13.20
2023-04-11T17:15:28.762Z,13.10
2023-04-11T17:17:56.969Z,13.00
2023-04-11T17:20:25.342Z,13.00
2023-04-11T17:22:55.011Z,13.00
2023-04-11T17:25:23.325Z,12.90
2023-04-11T17:27:53.763Z,12.80
2023-04-11T17:30:22.223Z,12.80
2023-04-11T17:32:50.556Z,12.70
2023-04-11T17:35:18.791Z,12.70
2023-04-11T17:37:49.703Z,12.70
2023-04-11T17:40:19.789Z,12.60
2023-04-11T17:42:48.117Z,12.50
2023-04-11T17:45:18.497Z,12.50
2023-04-11T17:47:47.448Z,12.40
2023-04-11T17:50:16.465Z,12.30
2023-04-11T17:52:48.459Z,12.30
2023-04-11T17:55:20.756Z,12.30
2023-04-11T17:57:53.260Z,12.20
2023-04-11T18:00:24.064Z,12.10
2023-04-11T18:02:54.540Z,12.10
2023-04-11T18:05:25.982Z,12.00
2023-04-11T18:07:56.717Z,12.00
2023-04-11T18:10:27.326Z,11.90
2023-04-11T18:12:57.418Z,11.90
2023-04-11T18:15:26.880Z,11.80
2023-04-11T18:17:55.534Z,11.80
2023-04-11T18:20:23.985Z,11.70
2023-04-11T18:22:56.341Z,11.70
2023-04-11T18:25:26.466Z,11.60
2023-04-11T18:27:54.728Z,11.50
2023-04-11T18:30:23.066Z,11.50
2023-04-11T18:32:53.626Z,11.40
2023-04-11T18:35:22.547Z,11.30
2023-04-11T18:37:51.047Z,11.30
2023-04-11T18:40:19.577Z,11.20
2023-04-11T18:42:52.036Z,11.20
2023-04-11T18:45:21.995Z,11.10
2023-04-11T18:47:51.086Z,11.10
2023-04-11T18:50:19.981Z,11.00
2023-04-11T18:52:54.986Z,10.90
2023-04-11T18:55:28.303Z,10.80
2023-04-11T18:58:00.467Z,10.80
2023-04-11T19:00:30.218Z,10.70
2023-04-11T19:03:01.673Z,10.70
2023-04-11T19:05:30.794Z,10.60
2023-04-11T19:08:00.826Z,10.50
2023-04-11T19:10:29.063Z,10.50
2023-04-11T19:13:01.082Z,10.40
2023-04-11T19:15:29.638Z,10.30
2023-04-11T19:17:58.356Z,10.30
2023-04-11T19:20:27.360Z,10.20
2023-04-11T19:22:55.814Z,10.20
2023-04-11T19:25:24.322Z,10.10
2023-04-11T19:27:52.697Z,10.10
2023-04-11T19:30:22.281Z,10.00
2023-04-11T19:32:50.722Z,9.90
2023-04-11T19:35:21.417Z,9.80
2023-04-11T19:37:49.906Z,9.70
2023-04-11T19:40:23.145Z,9.70
2023-04-11T19:42:52.291Z,9.60
2023-04-11T19:45:22.151Z,9.50
2023-04-11T19:47:50.488Z,9.50
2023-04-11T19:50:18.971Z,9.50
2023-04-11T19:52:47.452Z,9.40
2023-04-11T19:55:18.307Z,9.30
2023-04-11T19:57:46.505Z,9.30
2023-04-11T20:00:16.302Z,9.20
2023-04-11T20:02:48.127Z,9.20
2023-04-11T20:05:18.755Z,9.20
2023-04-11T20:07:47.914Z,9.20
2023-04-11T20:10:17.103Z,9.10
2023-04-11T20:12:45.400Z,9.10
2023-04-11T20:15:13.761Z,9.10
2023-04-11T20:17:47.002Z,9.00
2023-04-11T20:20:15.899Z,9.00
2023-04-11T20:22:45.718Z,9.00
2023-04-11T20:25:13.924Z,8.90
2023-04-11T20:27:44.614Z,8.90
2023-04-11T20:30:13.893Z,8.80
2023-04-11T20:32:42.349Z,8.80
2023-04-11T20:35:13.027Z,8.80
2023-04-11T20:37:43.419Z,8.80
2023-04-11T20:40:13.844Z,8.80
2023-04-11T20:42:42.917Z,8.80
2023-04-11T20:45:12.678Z,8.70
2023-04-11T20:47:41.663Z,8.70
2023-04-11T20:50:14.316Z,8.70
2023-04-11T20:52:46.736Z,8.70
2023-04-11T20:55:15.737Z,8.60
2023-04-11T20:57:44.772Z,8.60
2023-04-11T21:00:14.711Z,8.60
2023-04-11T21:02:45.217Z,8.50
2023-04-11T21:05:15.297Z,8.50
2023-04-11T21:07:43.485Z,8.50
2023-04-11T21:10:12.317Z,8.40
2023-04-11T21:12:40.850Z,8.40
2023-04-11T21:15:10.351Z,8.40
2023-04-11T21:17:39.565Z,8.40
2023-04-11T21:20:11.080Z,8.40
2023-04-11T21:22:41.229Z,8.30
2023-04-11T21:25:10.020Z,8.30
2023-04-11T21:27:38.169Z,8.30
2023-04-11T21:30:07.373Z,8.20
2023-04-11T21:32:35.684Z,8.20
2023-04-11T21:35:05.856Z,8.20
2023-04-11T21:37:34.087Z,8.20
2023-04-11T21:40:06.519Z,8.20
2023-04-11T21:42:34.764Z,8.20
2023-04-11T21:45:02.896Z,8.20
2023-04-11T21:47:31.077Z,8.20
2023-04-11T21:49:59.220Z,8.20
2023-04-11T21:52:27.431Z,8.20
2023-04-11T21:54:57.951Z,8.20
2023-04-11T21:57:27.501Z,8.20
2023-04-11T21:59:55.754Z,8.20
2023-04-11T22:02:24.213Z,8.20
2023-04-11T22:05:05.640Z,8.20
2023-04-11T22:07:39.341Z,8.10
2023-04-11T22:10:11.753Z,8.20
2023-04-11T22:12:42.494Z,8.10
2023-04-11T22:15:12.892Z,8.20
2023-04-11T22:17:43.667Z,8.10
2023-04-11T22:20:13.426Z,8.20
2023-04-11T22:22:42.148Z,8.20
2023-04-11T22:25:11.518Z,8.20
2023-04-11T22:27:44.766Z,8.20
2023-04-11T22:30:14.532Z,8.20
2023-04-11T22:32:42.816Z,8.20
2023-04-11T22:35:11.149Z,8.20
2023-04-11T22:37:39.373Z,8.20
2023-04-11T22:40:11.599Z,8.20
2023-04-11T22:42:39.898Z,8.20
2023-04-11T22:45:10.834Z,8.20
2023-04-11T22:47:40.146Z,8.20
2023-04-11T22:50:09.367Z,8.20
2023-04-11T22:52:41.932Z,8.20
2023-04-11T22:55:11.361Z,8.10
2023-04-11T22:57:41.968Z,8.20
2023-04-11T23:00:16.288Z,8.10
2023-04-11T23:02:44.764Z,8.20
2023-04-11T23:05:13.596Z,8.20
2023-04-11T23:07:41.832Z,8.20
2023-04-11T23:10:14.047Z,8.20
2023-04-11T23:12:43.257Z,8.20
2023-04-11T23:15:13.416Z,8.20
2023-04-11T23:17:41.871Z,8.20
2023-04-11T23:20:13.307Z,8.30
2023-04-11T23:22:43.169Z,8.30
2023-04-11T23:25:15.118Z,8.30
2023-04-11T23:27:43.952Z,8.30
2023-04-11T23:30:15.064Z,8.30
2023-04-11T23:32:43.496Z,8.30
2023-04-11T23:35:11.804Z,8.40
2023-04-11T23:37:40.955Z,8.40
2023-04-11T23:40:13.913Z,8.40
2023-04-11T23:42:42.845Z,8.40
2023-04-11T23:45:14.903Z,8.40
2023-04-11T23:47:43.254Z,8.40
2023-04-11T23:50:13.671Z,8.50
2023-04-11T23:52:41.912Z,8.50
2023-04-11T23:55:11.004Z,8.50
2023-04-11T23:57:39.244Z,8.50
